createdAt,value
2017-10-15T10:08:22.059Z,12.20
2017-10-15T10:10:48.255Z,25.90
2017-10-15T10:13:14.340Z,26.30
2017-10-15T10:15:40.450Z,26.50
2017-10-15T10:18:06.533Z,26.20
2017-10-15T10:20:32.585Z,26.20
2017-10-15T10:22:59.141Z,26.10
2017-10-15T10:25:25.403Z,26.30
2017-10-15T10:27:51.488Z,26.50
2017-10-15T10:30:17.733Z,26.60
2017-10-15T10:32:43.872Z,26.60
2017-10-15T10:35:10.030Z,26.60
2017-10-15T10:37:36.868Z,27.10
2017-10-15T10:40:03.003Z,27.10
2017-10-15T10:42:29.130Z,27.20
2017-10-15T10:44:55.196Z,27.20
2017-10-15T10:47:21.537Z,27.40
2017-10-15T10:49:48.134Z,27.30
2017-10-15T10:52:14.309Z,27.60
2017-10-15T10:54:41.315Z,27.40
2017-10-15T10:57:07.427Z,27.40
2017-10-15T10:59:34.603Z,28.50
2017-10-15T11:02:00.667Z,28.40
2017-10-15T11:04:26.762Z,28.70
2017-10-15T11:06:52.833Z,28.70
2017-10-15T11:09:19.662Z,28.10
2017-10-15T11:11:45.774Z,28.00
2017-10-15T11:14:13.077Z,27.50
2017-10-15T11:16:39.482Z,26.80
2017-10-15T11:19:05.554Z,26.30
2017-10-15T11:21:32.373Z,26.50
2017-10-15T11:23:59.186Z,26.70
2017-10-15T11:26:25.247Z,26.70
2017-10-15T11:28:51.350Z,26.50
2017-10-15T11:31:17.406Z,25.80
2017-10-15T11:41:08.490Z,25.70
2017-10-15T11:43:34.578Z,24.70
2017-10-15T11:46:00.643Z,24.60
2017-10-15T11:48:26.692Z,24.70
2017-10-15T11:50:52.778Z,25.10
2017-10-15T11:53:19.588Z,26.30
2017-10-15T11:55:45.713Z,26.30
2017-10-15T11:58:12.490Z,27.00
2017-10-15T12:00:38.591Z,26.90
2017-10-15T12:03:04.646Z,27.30
2017-10-15T12:05:31.704Z,28.00
2017-10-15T12:07:57.778Z,28.80
2017-10-15T12:10:23.839Z,29.30
2017-10-15T12:15:17.727Z,30.20
2017-10-15T12:17:43.809Z,29.80
2017-10-15T12:20:09.881Z,29.90
2017-10-15T12:22:36.707Z,30.50
2017-10-15T12:25:03.556Z,30.70
2017-10-15T12:27:29.621Z,30.70
2017-10-15T12:29:55.785Z,30.80
2017-10-15T12:32:21.842Z,30.60
2017-10-15T12:34:47.909Z,30.10
2017-10-15T12:37:13.969Z,30.20
2017-10-15T12:39:40.042Z,30.40
2017-10-15T12:42:06.102Z,30.10
2017-10-15T12:44:32.197Z,30.30
2017-10-15T12:46:58.274Z,30.80
2017-10-15T12:49:25.122Z,30.70
2017-10-15T12:51:51.206Z,30.70
2017-10-15T12:54:17.287Z,31.40
2017-10-15T12:56:44.134Z,31.30
2017-10-15T12:59:10.210Z,31.20
2017-10-15T13:01:36.265Z,30.90
2017-10-15T13:04:02.409Z,31.10
2017-10-15T13:06:28.539Z,31.00
2017-10-15T13:08:54.564Z,30.40
2017-10-15T13:11:21.850Z,29.90
2017-10-15T13:13:47.914Z,29.80
2017-10-15T13:16:13.961Z,29.70
2017-10-15T13:18:40.018Z,28.90
2017-10-15T13:21:06.810Z,27.80
2017-10-15T13:23:32.891Z,27.80
2017-10-15T13:25:58.941Z,27.30
2017-10-15T13:28:25.021Z,27.20
2017-10-15T13:30:51.094Z,26.80
2017-10-15T13:33:17.877Z,25.30
2017-10-15T13:35:43.934Z,25.20
2017-10-15T13:38:11.105Z,25.20
2017-10-15T13:40:37.153Z,25.20
2017-10-15T13:43:03.194Z,25.00
2017-10-15T13:45:29.282Z,24.90
2017-10-15T13:47:56.108Z,24.70
2017-10-15T13:50:22.913Z,24.60
2017-10-15T13:52:49.014Z,24.50
2017-10-15T13:55:15.054Z,24.30
2017-10-15T13:57:41.843Z,24.10
2017-10-15T14:00:08.646Z,24.10
2017-10-15T14:02:34.752Z,24.10
2017-10-15T14:05:00.811Z,24.00
2017-10-15T14:07:26.865Z,23.80
2017-10-15T14:09:52.933Z,23.80
2017-10-15T14:12:19.016Z,23.70
2017-10-15T14:14:45.091Z,23.60
2017-10-15T14:17:11.129Z,23.70
2017-10-15T14:19:37.193Z,23.70
2017-10-15T14:22:03.263Z,23.50
2017-10-15T14:24:29.369Z,23.50
2017-10-15T14:26:55.497Z,23.50
2017-10-15T14:29:22.287Z,23.50
2017-10-15T14:31:48.437Z,23.30
2017-10-15T14:34:15.245Z,23.30
2017-10-15T14:36:41.345Z,23.30
2017-10-15T14:39:07.476Z,23.10
2017-10-15T14:41:33.729Z,23.00
2017-10-15T14:43:59.801Z,23.00
2017-10-15T14:46:25.846Z,22.90
2017-10-15T14:48:51.971Z,22.90
2017-10-15T14:51:18.038Z,22.90
2017-10-15T14:53:44.086Z,22.90
2017-10-15T14:56:10.168Z,22.90
2017-10-15T14:58:36.971Z,22.80
2017-10-15T15:01:03.798Z,22.70
2017-10-15T15:03:29.852Z,22.70
2017-10-15T15:05:55.906Z,22.70
2017-10-15T15:08:21.968Z,22.60
2017-10-15T15:10:48.012Z,22.60
2017-10-15T15:13:14.055Z,22.60
2017-10-15T15:15:40.137Z,22.60
2017-10-15T15:18:06.188Z,22.50
2017-10-15T15:20:32.969Z,22.40
2017-10-15T15:22:59.019Z,22.40
2017-10-15T15:25:25.838Z,22.40
2017-10-15T15:27:52.638Z,22.40
2017-10-15T15:30:18.681Z,22.40
2017-10-15T15:32:44.737Z,22.40
2017-10-15T15:35:10.810Z,22.30
2017-10-15T15:37:37.626Z,22.20
2017-10-15T15:40:04.422Z,22.10
2017-10-15T15:42:30.498Z,22.10
2017-10-15T15:44:56.571Z,22.10
2017-10-15T15:47:23.411Z,22.10
2017-10-15T15:49:50.234Z,21.90
2017-10-15T15:52:17.050Z,21.80
2017-10-15T15:54:43.862Z,21.80
2017-10-15T15:57:09.990Z,21.70
2017-10-15T15:59:36.782Z,21.60
2017-10-15T16:02:02.842Z,21.60
2017-10-15T16:04:29.646Z,21.40
2017-10-15T16:06:56.445Z,21.30
2017-10-15T16:09:22.522Z,21.20
2017-10-15T16:11:48.577Z,21.20
2017-10-15T16:14:14.653Z,21.20
2017-10-15T16:16:40.726Z,21.20
2017-10-15T16:19:06.763Z,21.10
2017-10-15T16:21:32.801Z,21.10
2017-10-15T16:23:58.850Z,21.00
2017-10-15T16:26:25.659Z,20.80
2017-10-15T16:28:51.721Z,20.80
2017-10-15T16:31:17.789Z,20.70
2017-10-15T16:33:43.836Z,20.70
2017-10-15T16:36:09.894Z,20.60
2017-10-15T16:38:35.982Z,20.60
2017-10-15T16:41:02.010Z,20.50
2017-10-15T16:43:28.070Z,20.50
2017-10-15T16:45:54.116Z,20.40
2017-10-15T16:48:20.161Z,20.30
2017-10-15T16:50:46.975Z,20.30
2017-10-15T16:53:13.759Z,20.20
2017-10-15T16:55:39.813Z,20.20
2017-10-15T16:58:06.644Z,20.10
2017-10-15T17:00:33.461Z,20.10
2017-10-15T17:03:00.259Z,20.10
2017-10-15T17:05:26.310Z,20.00
2017-10-15T17:07:53.101Z,20.00
2017-10-15T17:10:19.906Z,19.90
2017-10-15T17:12:45.961Z,19.90
2017-10-15T17:15:12.130Z,19.80
2017-10-15T17:17:38.214Z,19.80
2017-10-15T17:20:04.290Z,19.70
2017-10-15T17:22:31.083Z,19.60
2017-10-15T17:24:57.129Z,19.60
2017-10-15T17:27:23.165Z,19.60
2017-10-15T17:29:49.222Z,19.60
2017-10-15T17:32:15.263Z,19.50
2017-10-15T17:34:42.088Z,19.40
2017-10-15T17:37:08.897Z,19.50
2017-10-15T17:39:34.947Z,19.40
2017-10-15T17:42:01.029Z,19.40
2017-10-15T17:44:27.830Z,19.20
2017-10-15T17:46:53.913Z,19.20
2017-10-15T17:49:20.857Z,19.20
2017-10-15T17:51:46.904Z,19.20
2017-10-15T17:54:13.699Z,19.10
2017-10-15T17:56:43.742Z,19.10
2017-10-15T17:59:10.559Z,19.10
2017-10-15T18:01:37.371Z,19.10
2017-10-15T18:04:03.437Z,19.10
2017-10-15T18:06:29.530Z,19.00
2017-10-15T18:08:55.601Z,19.00
2017-10-15T18:11:21.673Z,19.00
2017-10-15T18:13:47.735Z,19.00
2017-10-15T18:16:14.581Z,18.90
2017-10-15T18:18:40.645Z,18.90
2017-10-15T18:21:06.715Z,18.90
2017-10-15T18:23:32.789Z,18.90
2017-10-15T18:25:59.615Z,18.80
2017-10-15T18:28:26.505Z,18.70
2017-10-15T18:30:52.600Z,18.70
2017-10-15T18:33:18.693Z,18.60
2017-10-15T18:35:44.762Z,18.60
2017-10-15T18:38:10.851Z,18.60
2017-10-15T18:40:37.658Z,18.40
2017-10-15T18:43:03.735Z,18.40
2017-10-15T18:45:30.569Z,18.30
2017-10-15T18:47:56.758Z,18.30
2017-10-15T18:50:22.859Z,18.20
2017-10-15T18:52:49.106Z,18.10
2017-10-15T18:55:15.230Z,18.10
2017-10-15T18:57:41.357Z,18.00
2017-10-15T19:00:07.439Z,17.90
2017-10-15T19:02:33.578Z,17.90
2017-10-15T19:04:59.650Z,17.90
2017-10-15T19:07:25.732Z,17.90
2017-10-15T19:09:51.852Z,17.90
2017-10-15T19:12:17.913Z,17.90
2017-10-15T19:14:44.009Z,17.90
2017-10-15T19:17:10.137Z,17.80
2017-10-15T19:19:36.218Z,17.70
2017-10-15T19:22:02.339Z,17.70
2017-10-15T19:24:28.422Z,17.70
2017-10-15T19:26:55.222Z,17.60
2017-10-15T19:29:22.146Z,17.50
2017-10-15T19:31:48.234Z,17.50
2017-10-15T19:34:14.301Z,17.50
2017-10-15T19:36:41.094Z,17.40
2017-10-15T19:39:07.147Z,17.40
2017-10-15T19:41:33.962Z,17.30
2017-10-15T19:44:00.758Z,17.30
2017-10-15T19:46:26.859Z,17.30
2017-10-15T19:48:52.937Z,17.20
2017-10-15T19:51:19.029Z,17.20
2017-10-15T19:53:45.836Z,17.20
2017-10-15T19:56:12.665Z,17.10
2017-10-15T19:58:38.754Z,17.10
2017-10-15T20:01:04.821Z,17.10
2017-10-15T20:03:30.885Z,17.00
2017-10-15T20:05:56.983Z,17.00
2017-10-15T20:08:23.035Z,17.00
2017-10-15T20:10:49.251Z,17.00
2017-10-15T20:13:15.486Z,16.90
2017-10-15T20:15:41.544Z,16.90
2017-10-15T20:18:07.601Z,16.90
2017-10-15T20:20:33.661Z,16.90
2017-10-15T20:22:59.734Z,16.80
2017-10-15T20:25:25.821Z,16.80
2017-10-15T20:27:51.880Z,16.70
2017-10-15T20:30:17.940Z,16.70
2017-10-15T20:32:44.009Z,16.70
2017-10-15T20:35:10.058Z,16.70
2017-10-15T20:37:36.150Z,16.60
2017-10-15T20:40:02.282Z,16.60
2017-10-15T20:42:28.367Z,16.60
2017-10-15T20:44:54.433Z,16.50
2017-10-15T20:47:20.517Z,16.50
2017-10-15T20:49:46.581Z,16.50
2017-10-15T20:52:13.385Z,16.40
2017-10-15T20:54:39.485Z,16.40
2017-10-15T20:57:05.569Z,16.40
2017-10-15T20:59:31.637Z,16.40
2017-10-15T21:01:57.711Z,16.40
2017-10-15T21:04:23.859Z,16.40
2017-10-15T21:06:49.969Z,16.20
2017-10-15T21:09:16.057Z,16.20
2017-10-15T21:11:42.109Z,16.20
2017-10-15T21:14:08.189Z,16.10
2017-10-15T21:16:34.266Z,16.10
2017-10-15T21:19:01.064Z,16.10
2017-10-15T21:21:27.209Z,16.10
2017-10-15T21:23:53.298Z,16.10
2017-10-15T21:26:19.349Z,16.00
2017-10-15T21:28:45.533Z,16.00
2017-10-15T21:31:11.609Z,16.00
2017-10-15T21:33:38.393Z,16.00
2017-10-15T21:36:04.461Z,16.00
2017-10-15T21:38:36.482Z,16.00
2017-10-15T21:41:03.270Z,15.90
2017-10-15T21:43:29.349Z,15.90
2017-10-15T21:45:55.442Z,15.90
2017-10-15T21:48:21.791Z,15.80
2017-10-15T21:50:47.866Z,15.80
2017-10-15T21:53:13.947Z,15.80
2017-10-15T21:55:40.054Z,15.80
2017-10-15T21:58:06.122Z,15.70
2017-10-15T22:00:32.998Z,15.70
2017-10-15T22:02:59.805Z,15.70
2017-10-15T22:05:25.876Z,15.70
2017-10-15T22:07:51.961Z,15.60
2017-10-15T22:10:18.018Z,15.60
2017-10-15T22:12:44.082Z,15.60
2017-10-15T22:15:10.208Z,15.50
2017-10-15T22:17:36.264Z,15.40
2017-10-15T22:20:02.331Z,15.40
2017-10-15T22:22:28.414Z,15.40
2017-10-15T22:24:54.508Z,15.30
2017-10-15T22:27:20.565Z,15.20
2017-10-15T22:29:46.622Z,15.20
2017-10-15T22:32:12.665Z,15.20
2017-10-15T22:34:38.733Z,15.20
2017-10-15T22:37:04.797Z,15.20
2017-10-15T22:39:30.841Z,15.10
2017-10-15T22:41:58.382Z,15.00
2017-10-15T22:44:24.450Z,15.00
2017-10-15T22:46:50.555Z,15.00
2017-10-15T22:49:16.629Z,15.00
2017-10-15T22:51:42.680Z,15.10
2017-10-15T22:54:08.748Z,15.10
2017-10-15T22:56:34.793Z,15.00
2017-10-15T22:59:00.898Z,15.00
2017-10-15T23:01:26.978Z,15.10
2017-10-15T23:03:53.053Z,15.20
2017-10-15T23:06:19.131Z,15.20
2017-10-15T23:08:45.194Z,15.20
2017-10-15T23:11:11.253Z,15.30
2017-10-15T23:13:37.310Z,15.40
2017-10-15T23:16:03.361Z,15.40
2017-10-15T23:18:29.807Z,15.50
2017-10-15T23:20:57.398Z,15.60
2017-10-15T23:23:23.475Z,15.60
2017-10-15T23:25:49.565Z,15.70
2017-10-15T23:28:15.614Z,15.80
2017-10-15T23:30:41.690Z,15.90
2017-10-15T23:33:07.776Z,15.90
2017-10-15T23:35:33.870Z,16.00
2017-10-15T23:37:59.910Z,16.00
2017-10-15T23:40:25.973Z,16.00
2017-10-15T23:42:52.021Z,16.00
2017-10-15T23:45:18.093Z,16.10
2017-10-15T23:47:44.165Z,16.00
2017-10-15T23:50:10.242Z,16.00
2017-10-15T23:52:36.297Z,16.00
2017-10-15T23:55:02.413Z,16.10
2017-10-15T23:57:29.238Z,16.00
2017-10-15T23:59:55.305Z,16.00
